createdAt,value
2022-10-22T00:01:10.316Z,15.45
2022-10-22T00:03:40.578Z,14.75
2022-10-22T00:06:08.752Z,14.30
2022-10-22T00:08:36.494Z,15.43
2022-10-22T00:11:18.804Z,15.70
2022-10-22T00:16:20.297Z,15.27
2022-10-22T00:18:48.097Z,16.23
2022-10-22T00:21:16.171Z,14.67
2022-10-22T00:23:44.034Z,15.63
2022-10-22T00:26:12.715Z,14.98
2022-10-22T00:28:40.523Z,15.63
2022-10-22T00:31:08.627Z,15.48
2022-10-22T00:33:36.381Z,15.73
2022-10-22T00:36:04.949Z,15.20
2022-10-22T00:38:33.590Z,15.55
2022-10-22T00:43:53.276Z,14.55
2022-10-22T00:46:21.452Z,15.03
2022-10-22T00:48:49.441Z,14.60
2022-10-22T00:51:17.811Z,14.65
2022-10-22T00:53:49.940Z,14.60
2022-10-22T00:56:18.471Z,14.27
2022-10-22T00:58:50.176Z,15.10
2022-10-22T01:01:23.140Z,15.57
2022-10-22T01:03:51.807Z,14.57
2022-10-22T01:06:34.420Z,15.13
2022-10-22T01:09:05.320Z,16.52
2022-10-22T01:11:48.199Z,15.27
2022-10-22T01:14:34.624Z,16.30
2022-10-22T01:17:28.310Z,15.25
2022-10-22T01:19:59.154Z,16.27
2022-10-22T01:22:34.589Z,15.25
2022-10-22T01:25:21.495Z,15.13
2022-10-22T01:28:10.863Z,14.43
2022-10-22T01:30:40.976Z,14.32
2022-10-22T01:33:13.635Z,14.60
2022-10-22T01:35:44.232Z,14.10
2022-10-22T01:38:17.627Z,14.73
2022-10-22T01:40:47.748Z,14.15
2022-10-22T01:43:15.753Z,14.65
2022-10-22T01:45:52.300Z,14.10
2022-10-22T01:48:35.507Z,14.98
2022-10-22T01:51:21.206Z,16.33
2022-10-22T01:54:23.083Z,15.40
2022-10-22T01:57:16.000Z,14.13
2022-10-22T01:59:43.986Z,14.02
2022-10-22T02:02:17.471Z,15.55
2022-10-22T02:04:50.989Z,14.47
2022-10-22T02:07:23.306Z,14.30
2022-10-22T02:09:53.864Z,14.15
2022-10-22T02:12:22.928Z,13.85
2022-10-22T02:14:52.904Z,13.15
2022-10-22T02:17:22.753Z,13.97
2022-10-22T02:20:00.763Z,13.55
2022-10-22T02:22:28.996Z,12.68
2022-10-22T02:24:57.112Z,12.63
2022-10-22T02:27:33.838Z,13.73
2022-10-22T02:33:21.997Z,13.00
2022-10-22T02:35:52.473Z,12.48
2022-10-22T02:38:21.621Z,12.85
2022-10-22T02:40:50.361Z,13.80
2022-10-22T02:43:19.205Z,13.40
2022-10-22T02:45:47.658Z,12.68
2022-10-22T02:48:15.860Z,12.70
2022-10-22T02:50:43.969Z,12.70
2022-10-22T02:53:11.720Z,13.40
2022-10-22T02:55:39.829Z,12.63
2022-10-22T02:58:07.577Z,14.10
2022-10-22T03:00:35.531Z,13.55
2022-10-22T03:03:03.352Z,13.23
2022-10-22T03:05:31.245Z,13.52
2022-10-22T03:07:58.969Z,13.03
2022-10-22T03:10:26.933Z,14.82
2022-10-22T03:12:54.830Z,13.95
2022-10-22T03:15:22.738Z,14.75
2022-10-22T03:17:50.863Z,14.43
2022-10-22T03:20:18.760Z,13.67
2022-10-22T03:22:47.060Z,13.32
2022-10-22T03:25:21.309Z,13.80
2022-10-22T03:27:51.719Z,13.85
2022-10-22T03:30:19.909Z,13.25
2022-10-22T03:32:47.587Z,13.43
2022-10-22T03:35:15.738Z,13.32
2022-10-22T03:37:43.602Z,14.18
2022-10-22T03:40:14.466Z,13.88
2022-10-22T03:42:42.478Z,13.63
2022-10-22T03:45:11.187Z,13.80
2022-10-22T03:47:39.182Z,14.40
2022-10-22T03:50:08.143Z,13.10
2022-10-22T03:52:37.910Z,12.93
2022-10-22T03:55:07.415Z,12.95
2022-10-22T03:57:35.283Z,13.73
2022-10-22T04:00:05.747Z,13.10
2022-10-22T04:02:33.568Z,13.35
2022-10-22T04:05:02.224Z,13.40
2022-10-22T04:07:30.133Z,17.95
2022-10-22T04:09:58.200Z,19.17
2022-10-22T04:12:25.946Z,22.55
2022-10-22T04:14:53.841Z,17.65
2022-10-22T04:17:21.679Z,17.42
2022-10-22T04:19:49.540Z,18.20
2022-10-22T04:22:17.340Z,19.17
2022-10-22T04:24:45.322Z,19.48
2022-10-22T04:27:13.070Z,16.80
2022-10-22T04:29:40.978Z,15.57
2022-10-22T04:32:08.867Z,14.88
2022-10-22T04:34:36.782Z,15.23
2022-10-22T04:37:05.244Z,14.45
2022-10-22T04:39:33.226Z,14.82
2022-10-22T04:42:01.006Z,17.13
2022-10-22T04:44:29.071Z,15.30
2022-10-22T04:46:56.843Z,20.33
2022-10-22T04:49:24.784Z,16.88
2022-10-22T04:51:52.518Z,15.57
2022-10-22T04:54:20.629Z,16.45
2022-10-22T04:56:48.347Z,16.52
2022-10-22T04:59:16.284Z,16.47
2022-10-22T05:01:45.304Z,18.25
2022-10-22T05:04:17.029Z,15.95
2022-10-22T05:06:45.717Z,15.38
2022-10-22T05:09:19.437Z,14.32
2022-10-22T05:11:50.326Z,15.13
2022-10-22T05:14:22.387Z,14.10
2022-10-22T05:16:51.341Z,21.70
2022-10-22T05:19:24.293Z,24.15
2022-10-22T05:21:56.996Z,17.23
2022-10-22T05:24:25.948Z,14.50
2022-10-22T05:26:55.936Z,20.63
2022-10-22T05:29:24.448Z,16.55
2022-10-22T05:31:52.413Z,17.13
2022-10-22T05:34:20.759Z,16.08
2022-10-22T05:36:48.520Z,16.30
2022-10-22T05:39:16.601Z,15.95
2022-10-22T05:41:45.135Z,15.80
2022-10-22T05:44:14.233Z,19.50
2022-10-22T05:46:43.605Z,24.15
2022-10-22T05:49:14.738Z,46.10
2022-10-22T05:51:42.710Z,40.20
2022-10-22T05:54:17.827Z,36.72
2022-10-22T05:56:45.642Z,25.50
2022-10-22T05:59:13.582Z,13.13
2022-10-22T06:01:41.705Z,11.87
2022-10-22T06:04:13.195Z,11.68
2022-10-22T06:06:45.982Z,13.48
2022-10-22T06:09:28.841Z,13.38
2022-10-22T06:11:57.984Z,13.27
2022-10-22T06:14:26.805Z,13.90
2022-10-22T06:16:54.957Z,13.65
2022-10-22T06:19:26.058Z,13.20
2022-10-22T06:21:54.421Z,15.00
2022-10-22T06:24:22.597Z,11.02
2022-10-22T06:26:51.913Z,10.17
2022-10-22T06:29:20.046Z,10.93
2022-10-22T06:31:47.701Z,10.55
2022-10-22T06:34:19.115Z,9.77
2022-10-22T06:36:47.512Z,9.93
2022-10-22T06:39:17.106Z,11.27
2022-10-22T06:41:45.027Z,9.82
2022-10-22T06:44:17.972Z,11.40
2022-10-22T06:46:45.871Z,11.35
2022-10-22T06:49:15.677Z,10.25
2022-10-22T06:51:43.995Z,10.40
2022-10-22T06:54:12.585Z,10.50
2022-10-22T06:56:40.374Z,10.77
2022-10-22T06:59:08.871Z,11.23
2022-10-22T07:01:38.053Z,10.55
2022-10-22T07:04:07.373Z,11.63
2022-10-22T07:06:35.191Z,11.13
2022-10-22T07:09:03.401Z,12.48
2022-10-22T07:11:43.123Z,12.80
2022-10-22T07:14:12.086Z,12.13
2022-10-22T07:16:42.387Z,12.17
2022-10-22T07:19:10.383Z,12.30
2022-10-22T07:21:38.299Z,11.40
2022-10-22T07:24:06.769Z,10.63
2022-10-22T07:26:34.349Z,11.25
2022-10-22T07:29:03.289Z,9.97
2022-10-22T07:31:31.521Z,9.90
2022-10-22T07:33:59.588Z,10.05
2022-10-22T07:36:28.044Z,9.98
2022-10-22T07:38:58.639Z,8.77
2022-10-22T07:41:28.448Z,8.60
2022-10-22T07:43:57.893Z,9.55
2022-10-22T07:46:26.003Z,8.70
2022-10-22T07:48:54.480Z,8.05
2022-10-22T07:51:22.388Z,8.07
2022-10-22T07:53:50.954Z,7.50
2022-10-22T07:56:18.803Z,7.20
2022-10-22T07:58:46.866Z,7.43
2022-10-22T08:01:14.613Z,7.90
2022-10-22T08:03:42.784Z,6.55
2022-10-22T08:06:15.209Z,6.53
2022-10-22T08:08:44.026Z,7.10
2022-10-22T08:11:12.113Z,6.78
2022-10-22T08:13:44.877Z,6.82
2022-10-22T08:16:13.703Z,6.72
2022-10-22T08:18:41.855Z,6.00
2022-10-22T08:21:09.589Z,12.55
2022-10-22T08:23:38.281Z,11.05
2022-10-22T08:26:06.259Z,13.35
2022-10-22T08:28:37.334Z,11.73
2022-10-22T08:31:07.957Z,13.93
2022-10-22T08:33:36.295Z,14.23
2022-10-22T08:36:04.102Z,15.15
2022-10-22T08:38:32.280Z,16.33
2022-10-22T08:41:16.255Z,16.88
2022-10-22T08:44:15.751Z,18.90
2022-10-22T08:46:52.924Z,13.38
2022-10-22T08:49:31.996Z,13.20
2022-10-22T08:52:00.554Z,14.93
2022-10-22T08:54:55.746Z,17.40
2022-10-22T08:58:02.141Z,18.43
2022-10-22T09:00:42.151Z,18.15
2022-10-22T09:03:54.966Z,15.75
2022-10-22T09:06:31.801Z,18.23
2022-10-22T09:09:01.708Z,19.13
2022-10-22T09:11:36.531Z,19.90
2022-10-22T09:14:05.336Z,18.85
2022-10-22T09:16:43.429Z,23.17
2022-10-22T09:19:20.185Z,28.58
2022-10-22T09:22:15.721Z,26.70
2022-10-22T09:24:57.484Z,23.13
2022-10-22T09:27:30.985Z,21.50
2022-10-22T09:29:58.985Z,22.50
2022-10-22T09:32:27.481Z,25.27
2022-10-22T09:34:58.810Z,24.95
2022-10-22T09:37:30.028Z,25.33
2022-10-22T09:39:59.425Z,21.30
2022-10-22T09:42:27.556Z,24.20
2022-10-22T09:45:00.459Z,23.63
2022-10-22T09:50:41.477Z,20.23
2022-10-22T09:53:29.080Z,18.85
2022-10-22T09:56:00.246Z,17.17
2022-10-22T09:58:28.778Z,16.73
2022-10-22T10:00:59.447Z,15.52
2022-10-22T10:03:31.433Z,15.77
2022-10-22T10:06:04.950Z,11.45
2022-10-22T10:08:34.597Z,10.38
2022-10-22T10:11:16.818Z,13.65
2022-10-22T10:14:00.218Z,9.70
2022-10-22T10:17:01.209Z,10.50
2022-10-22T10:19:52.504Z,10.65
2022-10-22T10:22:20.338Z,12.10
2022-10-22T10:25:12.668Z,11.23
2022-10-22T10:27:52.055Z,11.85
2022-10-22T10:30:24.081Z,12.43
2022-10-22T10:33:11.003Z,14.82
2022-10-22T10:35:44.088Z,14.73
2022-10-22T10:38:53.669Z,13.88
2022-10-22T10:41:53.351Z,15.90
2022-10-22T10:44:39.357Z,15.53
2022-10-22T10:47:16.129Z,14.55
2022-10-22T10:49:44.397Z,16.40
2022-10-22T10:52:23.507Z,14.68
2022-10-22T10:55:11.851Z,11.88
2022-10-22T10:57:54.951Z,12.97
2022-10-22T11:00:24.085Z,11.52
2022-10-22T11:03:01.330Z,11.15
2022-10-22T11:05:35.986Z,14.60
2022-10-22T11:08:19.276Z,26.88
2022-10-22T11:10:50.604Z,16.70
2022-10-22T11:13:30.930Z,14.68
2022-10-22T11:16:16.089Z,11.57
2022-10-22T11:18:47.213Z,13.13
2022-10-22T11:21:26.698Z,12.13
2022-10-22T11:24:10.818Z,8.77
2022-10-22T11:26:44.455Z,10.95
2022-10-22T11:29:18.112Z,9.90
2022-10-22T11:31:46.708Z,9.57
2022-10-22T11:34:33.772Z,8.20
2022-10-22T11:37:05.053Z,10.50
2022-10-22T11:39:51.529Z,8.77
2022-10-22T11:42:22.506Z,8.45
2022-10-22T11:45:13.782Z,8.73
2022-10-22T11:48:07.320Z,8.48
2022-10-22T11:50:41.723Z,8.30
2022-10-22T11:53:16.638Z,8.25
2022-10-22T11:55:51.894Z,9.50
2022-10-22T11:58:35.860Z,10.68
2022-10-22T12:01:09.566Z,9.23
2022-10-22T12:04:06.381Z,10.63
2022-10-22T12:06:54.338Z,6.60
2022-10-22T12:09:26.382Z,4.50
2022-10-22T12:11:56.819Z,3.17
2022-10-22T12:14:52.177Z,3.70
2022-10-22T12:17:24.258Z,4.07
2022-10-22T12:20:08.075Z,3.80
2022-10-22T12:22:38.109Z,3.70
2022-10-22T12:25:35.606Z,3.63
2022-10-22T12:28:04.860Z,4.10
2022-10-22T12:30:35.854Z,3.37
2022-10-22T12:33:08.076Z,3.60
2022-10-22T12:35:43.887Z,3.25
2022-10-22T12:38:20.985Z,3.72
2022-10-22T12:40:50.578Z,3.38
2022-10-22T12:43:24.267Z,3.70
2022-10-22T12:45:53.161Z,3.22
2022-10-22T12:48:44.660Z,3.25
2022-10-22T12:51:19.855Z,3.60
2022-10-22T12:53:51.270Z,6.00
2022-10-22T12:56:24.080Z,6.27
2022-10-22T12:59:08.263Z,44.17
2022-10-22T13:01:38.805Z,42.42
2022-10-22T13:04:13.160Z,19.65
2022-10-22T13:06:46.044Z,14.23
2022-10-22T13:09:14.685Z,4.37
2022-10-22T13:11:50.341Z,3.45
2022-10-22T13:14:22.565Z,4.72
2022-10-22T13:17:08.620Z,6.43
2022-10-22T13:19:47.416Z,4.80
2022-10-22T13:22:36.316Z,5.43
2022-10-22T13:25:28.493Z,6.03
2022-10-22T13:28:00.165Z,5.18
2022-10-22T13:30:36.447Z,4.47
2022-10-22T13:33:23.111Z,4.28
2022-10-22T13:35:51.312Z,4.33
2022-10-22T13:38:20.804Z,4.20
2022-10-22T13:40:49.448Z,4.00
2022-10-22T13:43:18.218Z,5.10
2022-10-22T13:45:48.194Z,6.30
2022-10-22T13:48:19.559Z,5.50
2022-10-22T13:50:51.131Z,8.35
2022-10-22T13:53:22.439Z,10.20
2022-10-22T13:55:50.746Z,17.67
2022-10-22T13:58:20.984Z,25.67
2022-10-22T14:00:55.206Z,17.67
2022-10-22T14:03:28.549Z,9.15
2022-10-22T14:05:57.106Z,7.78
2022-10-22T14:08:26.279Z,10.90
2022-10-22T14:10:55.034Z,12.60
2022-10-22T14:13:22.730Z,10.87
2022-10-22T14:15:52.631Z,13.80
2022-10-22T14:18:26.733Z,13.77
2022-10-22T14:20:58.641Z,12.05
2022-10-22T14:23:29.947Z,11.45
2022-10-22T14:25:59.441Z,9.33
2022-10-22T14:28:29.794Z,16.02
2022-10-22T14:30:59.808Z,13.00
2022-10-22T14:33:33.041Z,14.65
2022-10-22T14:36:01.842Z,11.32
2022-10-22T14:38:29.910Z,11.57
2022-10-22T14:41:00.057Z,12.43
2022-10-22T14:43:31.467Z,10.40
2022-10-22T14:45:59.931Z,11.70
2022-10-22T14:48:27.582Z,7.75
2022-10-22T14:50:55.774Z,9.57
2022-10-22T14:53:23.666Z,9.60
2022-10-22T14:55:52.456Z,9.25
2022-10-22T14:58:20.265Z,9.38
2022-10-22T15:00:48.365Z,8.77
2022-10-22T15:03:16.023Z,10.03
2022-10-22T15:05:45.177Z,8.57
2022-10-22T15:08:14.674Z,8.82
2022-10-22T15:10:42.784Z,8.73
2022-10-22T15:13:10.733Z,9.45
2022-10-22T15:15:41.584Z,10.67
2022-10-22T15:18:10.221Z,10.63
2022-10-22T15:20:38.272Z,9.88
2022-10-22T15:23:06.183Z,12.23
2022-10-22T15:25:34.177Z,21.13
2022-10-22T15:28:09.055Z,21.10
2022-10-22T15:30:38.096Z,21.02
2022-10-22T15:33:06.599Z,23.17
2022-10-22T15:35:34.740Z,23.35
2022-10-22T15:38:02.404Z,23.05
2022-10-22T15:40:30.521Z,23.47
2022-10-22T15:42:58.640Z,23.73
2022-10-22T15:45:26.672Z,23.30
2022-10-22T15:47:54.371Z,21.83
2022-10-22T15:50:22.528Z,24.85
2022-10-22T15:52:50.358Z,28.07
2022-10-22T15:55:19.200Z,29.50
2022-10-22T15:57:46.911Z,24.20
2022-10-22T16:00:15.280Z,24.20
2022-10-22T16:02:43.832Z,23.38
2022-10-22T16:05:11.889Z,23.73
2022-10-22T16:07:39.770Z,23.13
2022-10-22T16:10:08.792Z,23.40
2022-10-22T16:12:36.468Z,24.40
2022-10-22T16:15:05.592Z,27.60
2022-10-22T16:17:33.314Z,22.57
2022-10-22T16:20:02.005Z,22.40
2022-10-22T16:22:29.697Z,26.20
2022-10-22T16:24:57.836Z,26.60
2022-10-22T16:27:25.722Z,23.40
2022-10-22T16:29:53.786Z,24.33
2022-10-22T16:32:21.467Z,24.50
2022-10-22T16:34:49.577Z,27.65
2022-10-22T16:37:17.287Z,22.10
2022-10-22T16:39:46.768Z,17.83
2022-10-22T16:42:14.607Z,17.07
2022-10-22T16:44:42.657Z,18.33
2022-10-22T16:47:10.371Z,14.75
2022-10-22T16:49:38.372Z,15.65
2022-10-22T16:52:06.490Z,13.20
2022-10-22T16:54:35.725Z,12.87
2022-10-22T16:57:03.655Z,12.18
2022-10-22T16:59:31.726Z,14.13
2022-10-22T17:01:59.477Z,19.27
2022-10-22T17:04:27.817Z,18.15
2022-10-22T17:06:55.474Z,15.87
2022-10-22T17:09:24.731Z,14.00
2022-10-22T17:11:52.594Z,15.18
2022-10-22T17:14:21.199Z,14.63
2022-10-22T17:16:53.947Z,18.90
2022-10-22T17:19:24.182Z,18.77
2022-10-22T17:21:53.834Z,17.70
2022-10-22T17:24:21.985Z,15.98
2022-10-22T17:26:50.951Z,18.90
2022-10-22T17:29:21.254Z,17.33
2022-10-22T17:31:50.543Z,20.70
2022-10-22T17:34:18.602Z,23.20
2022-10-22T17:36:46.625Z,18.45
2022-10-22T17:39:18.226Z,16.13
2022-10-22T17:41:46.311Z,15.02
2022-10-22T17:44:16.423Z,16.20
2022-10-22T17:46:45.637Z,17.35
2022-10-22T17:49:18.315Z,14.63
2022-10-22T17:51:47.265Z,15.30
2022-10-22T17:54:15.474Z,14.05
2022-10-22T17:56:43.649Z,11.53
2022-10-22T17:59:14.911Z,15.00
2022-10-22T18:01:47.914Z,13.18
2022-10-22T18:04:18.259Z,14.73
2022-10-22T18:06:47.398Z,13.82
2022-10-22T18:09:19.539Z,16.87
2022-10-22T18:11:49.704Z,18.38
2022-10-22T18:14:19.299Z,14.90
2022-10-22T18:16:47.603Z,15.20
2022-10-22T18:19:18.205Z,15.10
2022-10-22T18:21:46.708Z,16.17
2022-10-22T18:24:17.465Z,12.23
2022-10-22T18:26:45.720Z,14.90
2022-10-22T18:29:17.243Z,12.10
2022-10-22T18:31:45.840Z,13.18
2022-10-22T18:34:15.798Z,10.93
2022-10-22T18:36:45.656Z,11.55
2022-10-22T18:39:15.763Z,12.77
2022-10-22T18:41:44.349Z,12.98
2022-10-22T18:44:14.515Z,12.55
2022-10-22T18:46:42.432Z,12.90
2022-10-22T18:49:16.405Z,15.15
2022-10-22T18:51:44.579Z,12.55
2022-10-22T18:54:25.565Z,13.15
2022-10-22T18:57:00.513Z,20.30
2022-10-22T18:59:31.464Z,15.80
2022-10-22T19:02:00.011Z,20.42
2022-10-22T19:04:33.839Z,17.85
2022-10-22T19:07:01.853Z,15.20
2022-10-22T19:09:30.029Z,14.27
2022-10-22T19:11:57.816Z,13.63
2022-10-22T19:14:28.971Z,16.90
2022-10-22T19:16:56.809Z,14.32
2022-10-22T19:19:24.845Z,12.20
2022-10-22T19:21:53.750Z,12.70
2022-10-22T19:24:21.950Z,17.20
2022-10-22T19:26:50.174Z,17.10
2022-10-22T19:29:20.506Z,19.05
2022-10-22T19:31:51.501Z,16.25
2022-10-22T19:34:20.535Z,16.48
2022-10-22T19:36:48.261Z,14.27
2022-10-22T19:39:17.012Z,13.30
2022-10-22T19:41:46.469Z,12.88
2022-10-22T19:44:16.282Z,14.45
2022-10-22T19:46:43.995Z,13.35
2022-10-22T19:49:12.385Z,13.07
2022-10-22T19:51:40.463Z,12.45
2022-10-22T19:54:11.862Z,12.15
2022-10-22T19:56:39.699Z,13.65
2022-10-22T19:59:08.584Z,13.02
2022-10-22T20:01:36.438Z,13.30
2022-10-22T20:04:05.153Z,11.15
2022-10-22T20:06:34.011Z,10.45
2022-10-22T20:09:01.936Z,8.73
2022-10-22T20:11:30.460Z,8.82
2022-10-22T20:13:59.279Z,7.63
2022-10-22T20:16:30.291Z,8.93
2022-10-22T20:19:04.672Z,7.22
2022-10-22T20:21:33.979Z,7.28
2022-10-22T20:24:02.169Z,7.05
2022-10-22T20:26:31.875Z,7.27
2022-10-22T20:29:00.460Z,8.70
2022-10-22T20:31:29.901Z,8.43
2022-10-22T20:33:59.504Z,7.93
2022-10-22T20:36:28.799Z,6.78
2022-10-22T20:39:06.996Z,7.07
2022-10-22T20:41:38.151Z,6.10
2022-10-22T20:44:08.053Z,8.23
2022-10-22T20:46:35.763Z,7.65
2022-10-22T20:49:09.652Z,8.43
2022-10-22T20:51:37.917Z,9.20
2022-10-22T20:54:07.733Z,12.20
2022-10-22T20:56:37.868Z,10.50
2022-10-22T20:59:08.373Z,10.63
2022-10-22T21:01:37.609Z,11.00
2022-10-22T21:04:06.092Z,10.30
2022-10-22T21:06:34.520Z,8.90
2022-10-22T21:09:02.633Z,9.13
2022-10-22T21:11:30.633Z,10.52
2022-10-22T21:13:58.570Z,9.85
2022-10-22T21:16:26.692Z,9.23
2022-10-22T21:18:54.935Z,9.73
2022-10-22T21:21:22.822Z,9.25
2022-10-22T21:23:50.940Z,9.52
2022-10-22T21:26:20.027Z,9.50
2022-10-22T21:28:48.293Z,9.40
2022-10-22T21:31:22.259Z,10.32
2022-10-22T21:33:50.942Z,10.90
2022-10-22T21:36:22.631Z,10.80
2022-10-22T21:38:52.690Z,11.48
2022-10-22T21:41:22.202Z,10.87
2022-10-22T21:43:50.523Z,10.50
2022-10-22T21:46:24.565Z,11.32
2022-10-22T21:48:54.680Z,12.25
2022-10-22T21:51:24.352Z,11.75
2022-10-22T21:53:52.981Z,12.23
2022-10-22T21:56:34.305Z,11.68
2022-10-22T21:59:04.346Z,10.95
2022-10-22T22:01:32.199Z,11.20
2022-10-22T22:04:00.341Z,8.52
2022-10-22T22:06:33.202Z,7.33
2022-10-22T22:09:03.443Z,6.75
2022-10-22T22:11:31.801Z,7.43
2022-10-22T22:13:59.958Z,6.50
2022-10-22T22:16:31.266Z,6.10
2022-10-22T22:19:06.018Z,6.70
2022-10-22T22:21:35.898Z,6.40
2022-10-22T22:24:04.444Z,6.60
2022-10-22T22:26:32.748Z,6.78
2022-10-22T22:29:01.588Z,7.10
2022-10-22T22:31:31.854Z,7.20
2022-10-22T22:34:04.985Z,7.63
2022-10-22T22:36:38.428Z,7.38
2022-10-22T22:39:08.122Z,6.47
2022-10-22T22:41:36.030Z,6.85
2022-10-22T22:44:04.696Z,6.93
2022-10-22T22:46:32.989Z,7.20
2022-10-22T22:49:01.009Z,6.60
2022-10-22T22:51:29.384Z,6.00
2022-10-22T22:54:01.775Z,6.88
2022-10-22T22:56:32.213Z,7.57
2022-10-22T22:59:00.602Z,6.90
2022-10-22T23:01:32.151Z,7.57
2022-10-22T23:04:03.046Z,6.47
2022-10-22T23:06:33.833Z,6.88
2022-10-22T23:09:02.248Z,7.00
2022-10-22T23:11:30.433Z,6.97
2022-10-22T23:14:04.172Z,7.43
2022-10-22T23:16:34.641Z,9.77
2022-10-22T23:19:04.333Z,7.03
2022-10-22T23:21:38.221Z,7.23
2022-10-22T23:24:09.269Z,8.25
2022-10-22T23:26:40.789Z,7.90
2022-10-22T23:29:11.512Z,7.82
2022-10-22T23:31:39.434Z,8.07
2022-10-22T23:34:08.368Z,7.50
2022-10-22T23:37:42.120Z,9.93
2022-10-22T23:40:11.240Z,8.93
2022-10-22T23:45:11.809Z,8.20
2022-10-22T23:47:39.767Z,7.33
2022-10-22T23:50:08.541Z,6.13
2022-10-22T23:52:36.255Z,6.28
2022-10-22T23:55:04.526Z,6.55
2022-10-22T23:57:32.121Z,5.85
